Time;durP1;ratioP1;P1;durP2;ratioP2;P2;SDS_P1;SDS_P2;PMS_P1;PMS_P2;Temp;Humidity;BMP_temperature;BMP_pressure;BME280_temperature;BME280_humidity;BME280_pressure;Samples;Min_cycle;Max_cycle;Signal;HPM_P1;HPM_P2
2021/12/06 00:00:51;;;;;;;43.97;22.55;;;;;;;;;;2645629;52;21007;-76
2021/12/06 00:03:20;;;;;;;41.25;21.23;;;;;;;;;;2388816;56;22143;-75
2021/12/06 00:05:47;;;;;;;38.13;19.02;;;;;;;;;;2389285;56;21023;-76
2021/12/06 00:08:14;;;;;;;40.10;20.10;;;;;;;;;;2645306;52;21026;-77
2021/12/06 00:10:42;;;;;;;49.92;23.02;;;;;;;;;;2388737;56;21078;-76
2021/12/06 00:13:09;;;;;;;46.53;22.15;;;;;;;;;;2645667;52;21022;-76
2021/12/06 00:15:37;;;;;;;42.05;21.15;;;;;;;;;;2388987;56;21011;-76
2021/12/06 00:18:04;;;;;;;40.75;19.85;;;;;;;;;;2645461;52;21011;-76
2021/12/06 00:20:31;;;;;;;42.78;18.65;;;;;;;;;;2645509;52;21019;-77
2021/12/06 00:22:58;;;;;;;34.67;18.35;;;;;;;;;;2645723;52;21070;-76
2021/12/06 00:25:25;;;;;;;39.25;18.67;;;;;;;;;;2389531;56;21086;-76
2021/12/06 00:27:52;;;;;;;40.12;19.67;;;;;;;;;;2645893;52;21518;-76
2021/12/06 00:30:19;;;;;;;39.40;20.25;;;;;;;;;;2389219;56;21003;-76
2021/12/06 00:32:46;;;;;;;43.22;19.52;;;;;;;;;;2389300;56;21070;-77
2021/12/06 00:35:19;;;;;;;34.60;16.98;;;;;;;;;;2645516;52;21019;-76
2021/12/06 00:37:55;;;;;;;38.67;16.05;;;;;;;;;;2389685;56;21015;-76
2021/12/06 00:40:23;;;;;;;42.55;20.35;;;;;;;;;;2645536;52;21085;-76
2021/12/06 00:42:50;;;;;;;41.08;20.48;;;;;;;;;;2646004;52;21031;-76
2021/12/06 00:45:17;;;;;;;45.42;20.73;;;;;;;;;;2388958;56;21511;-76
2021/12/06 00:47:44;;;;;;;38.95;20.58;;;;;;;;;;2388880;56;21066;-76
2021/12/06 00:50:11;;;;;;;36.47;18.83;;;;;;;;;;2645797;52;21030;-76
2021/12/06 00:52:38;;;;;;;44.08;20.92;;;;;;;;;;2646098;52;21090;-75
2021/12/06 00:55:07;;;;;;;44.08;20.65;;;;;;;;;;2389076;56;21070;-75
2021/12/06 00:57:34;;;;;;;42.95;21.83;;;;;;;;;;2388425;56;21089;-76
2021/12/06 01:00:02;;;;;;;40.80;21.62;;;;;;;;;;2388259;56;21261;-75
2021/12/06 01:02:29;;;;;;;37.80;20.25;;;;;;;;;;2645494;52;21034;-76
2021/12/06 01:04:56;;;;;;;44.72;21.35;;;;;;;;;;2389404;56;21007;-76
2021/12/06 01:07:23;;;;;;;40.30;19.30;;;;;;;;;;2646350;52;21027;-76
2021/12/06 01:09:50;;;;;;;38.08;19.17;;;;;;;;;;2646277;52;21058;-76
2021/12/06 01:12:17;;;;;;;48.25;22.20;;;;;;;;;;2389516;56;21102;-76
2021/12/06 01:14:44;;;;;;;41.08;19.67;;;;;;;;;;2389170;56;21031;-76
2021/12/06 01:17:11;;;;;;;38.85;19.85;;;;;;;;;;2389580;56;21043;-76
2021/12/06 01:19:38;;;;;;;44.45;21.67;;;;;;;;;;2389218;56;21102;-76
2021/12/06 01:22:18;;;;;;;41.33;19.85;;;;;;;;;;2389563;56;21110;-76
2021/12/06 01:24:52;;;;;;;43.85;22.23;;;;;;;;;;2389407;56;21024;-76
2021/12/06 01:27:42;;;;;;;39.60;19.98;;;;;;;;;;2389593;56;21034;-76
2021/12/06 01:30:25;;;;;;;41.67;20.88;;;;;;;;;;2389521;56;21078;-76
2021/12/06 01:33:33;;;;;;;;;;;;;;;;;;2393165;56;21109;-76
2021/12/06 01:41:32;;;;;;;38.10;19.35;;;;;;;;;;2389859;56;20983;-76
2021/12/06 01:44:03;;;;;;;40.00;20.42;;;;;;;;;;2645969;52;21153;-76
2021/12/06 01:46:30;;;;;;;37.83;20.45;;;;;;;;;;2646257;52;21105;-77
2021/12/06 01:48:57;;;;;;;42.38;21.55;;;;;;;;;;2389397;56;21006;-76
2021/12/06 01:51:25;;;;;;;41.03;19.48;;;;;;;;;;2645959;52;21030;-76
2021/12/06 01:53:52;;;;;;;43.63;19.75;;;;;;;;;;2646256;52;21070;-75
2021/12/06 01:56:19;;;;;;;36.22;18.92;;;;;;;;;;2389654;56;21066;-76
2021/12/06 01:58:46;;;;;;;39.88;21.37;;;;;;;;;;2389455;56;21035;-76
2021/12/06 02:01:13;;;;;;;41.20;21.50;;;;;;;;;;2646180;52;21102;-76
2021/12/06 02:03:40;;;;;;;39.30;20.20;;;;;;;;;;2646293;52;21026;-76
2021/12/06 02:06:07;;;;;;;39.17;19.67;;;;;;;;;;2388968;56;21022;-76
2021/12/06 02:08:34;;;;;;;44.97;21.75;;;;;;;;;;2646282;52;21007;-75
2021/12/06 02:11:03;;;;;;;42.30;20.83;;;;;;;;;;2646005;52;21535;-76
2021/12/06 02:13:36;;;;;;;51.92;22.83;;;;;;;;;;2389477;56;21019;-76
2021/12/06 02:16:04;;;;;;;54.33;21.35;;;;;;;;;;2389668;56;21090;-76
2021/12/06 02:18:42;;;;;;;42.97;21.37;;;;;;;;;;2645991;52;21038;-77
2021/12/06 02:21:20;;;;;;;44.42;22.10;;;;;;;;;;2646045;52;21010;-76
2021/12/06 02:23:48;;;;;;;53.15;24.25;;;;;;;;;;2645824;52;21062;-76
2021/12/06 02:26:15;;;;;;;50.30;24.15;;;;;;;;;;2389382;56;20998;-76
2021/12/06 02:28:42;;;;;;;47.83;21.77;;;;;;;;;;2645504;52;21083;-74
2021/12/06 02:31:10;;;;;;;45.28;21.37;;;;;;;;;;2645704;52;21070;-76
2021/12/06 02:33:37;;;;;;;46.70;22.52;;;;;;;;;;2389176;56;21027;-76
2021/12/06 02:36:05;;;;;;;38.85;19.48;;;;;;;;;;2388632;56;21228;-76
2021/12/06 02:38:32;;;;;;;38.90;19.33;;;;;;;;;;2388936;56;21094;-75
2021/12/06 02:40:59;;;;;;;42.72;20.05;;;;;;;;;;2388794;56;21103;-75
2021/12/06 02:43:26;;;;;;;41.37;21.40;;;;;;;;;;2388672;56;21058;-76
2021/12/06 02:45:53;;;;;;;44.78;21.27;;;;;;;;;;2389083;56;21086;-76
2021/12/06 02:48:20;;;;;;;43.53;20.95;;;;;;;;;;2645815;52;21609;-75
2021/12/06 02:50:48;;;;;;;39.92;20.10;;;;;;;;;;2388652;56;21027;-76
2021/12/06 02:53:16;;;;;;;40.72;19.37;;;;;;;;;;2388989;56;21371;-76
2021/12/06 02:55:43;;;;;;;37.35;18.52;;;;;;;;;;2645490;52;21054;-76
2021/12/06 02:58:18;;;;;;;40.65;19.90;;;;;;;;;;2388999;56;21022;-76
2021/12/06 03:00:46;;;;;;;38.25;18.75;;;;;;;;;;2388096;56;21018;-77
2021/12/06 03:03:13;;;;;;;31.52;17.05;;;;;;;;;;2388492;56;21113;-76
2021/12/06 03:05:40;;;;;;;41.15;19.65;;;;;;;;;;2388826;56;21098;-76
2021/12/06 03:08:07;;;;;;;39.53;20.02;;;;;;;;;;2388805;56;21039;-76
2021/12/06 03:10:35;;;;;;;39.90;19.65;;;;;;;;;;2388503;56;21614;-76
2021/12/06 03:13:02;;;;;;;37.28;19.00;;;;;;;;;;2388682;56;21099;-76
2021/12/06 03:15:29;;;;;;;43.25;18.45;;;;;;;;;;2388746;56;21665;-76
2021/12/06 03:17:56;;;;;;;51.28;17.37;;;;;;;;;;2388676;56;21011;-76
2021/12/06 03:20:23;;;;;;;66.93;20.08;;;;;;;;;;2388499;56;21087;-76
2021/12/06 03:22:51;;;;;;;76.37;21.48;;;;;;;;;;2388914;56;21002;-77
2021/12/06 03:25:18;;;;;;;63.53;22.98;;;;;;;;;;2389139;56;21014;-77
2021/12/06 03:27:45;;;;;;;43.85;19.85;;;;;;;;;;2388229;56;21308;-76
2021/12/06 03:30:13;;;;;;;59.88;22.45;;;;;;;;;;2388619;56;21038;-76
2021/12/06 03:32:40;;;;;;;38.95;19.02;;;;;;;;;;2389149;56;21085;-76
2021/12/06 03:35:09;;;;;;;61.53;20.27;;;;;;;;;;2388877;56;21087;-77
2021/12/06 03:37:35;;;;;;;42.92;19.30;;;;;;;;;;2388794;56;21011;-76
2021/12/06 03:40:03;;;;;;;45.40;20.55;;;;;;;;;;2388728;56;21026;-75
2021/12/06 03:42:30;;;;;;;46.45;21.77;;;;;;;;;;2645374;52;21042;-77
2021/12/06 03:44:57;;;;;;;33.97;17.83;;;;;;;;;;2388999;56;21566;-76
2021/12/06 03:47:25;;;;;;;36.53;18.80;;;;;;;;;;2388615;56;21094;-76
2021/12/06 03:49:52;;;;;;;45.38;21.73;;;;;;;;;;2388667;56;21149;-77
2021/12/06 03:52:20;;;;;;;35.72;19.77;;;;;;;;;;2645112;52;21014;-77
2021/12/06 03:54:49;;;;;;;35.53;19.80;;;;;;;;;;2389309;56;21015;-77
2021/12/06 03:57:17;;;;;;;38.63;19.55;;;;;;;;;;2388778;56;21088;-77
2021/12/06 03:59:44;;;;;;;37.83;19.12;;;;;;;;;;2645239;52;21066;-77
2021/12/06 04:02:11;;;;;;;35.90;20.02;;;;;;;;;;2644964;52;21084;-77
2021/12/06 04:04:39;;;;;;;38.92;18.55;;;;;;;;;;2645573;52;21627;-77
2021/12/06 04:07:06;;;;;;;39.60;19.35;;;;;;;;;;2389000;56;21050;-77
2021/12/06 04:09:33;;;;;;;37.30;19.27;;;;;;;;;;2645384;52;21007;-79
2021/12/06 04:14:29;;;;;;;38.80;19.52;;;;;;;;;;2433947;54;21043;-84
2021/12/06 04:16:56;;;;;;;38.00;18.73;;;;;;;;;;2313233;58;21179;-84
2021/12/06 04:19:23;;;;;;;38.83;18.48;;;;;;;;;;2312515;58;21115;-84
2021/12/06 04:21:50;;;;;;;39.13;19.52;;;;;;;;;;2312767;58;21040;-84
2021/12/06 04:24:18;;;;;;;37.70;18.25;;;;;;;;;;2311301;58;21060;-84
2021/12/06 04:26:45;;;;;;;43.20;18.02;;;;;;;;;;2311439;58;21060;-84
2021/12/06 04:29:12;;;;;;;36.10;16.92;;;;;;;;;;2312474;54;21119;-83
2021/12/06 04:31:42;;;;;;;35.42;16.10;;;;;;;;;;2311440;58;21052;-84
2021/12/06 04:34:09;;;;;;;31.52;14.50;;;;;;;;;;2311459;58;21096;-84
2021/12/06 04:36:36;;;;;;;29.48;15.45;;;;;;;;;;2311268;58;21056;-84
2021/12/06 04:39:04;;;;;;;25.95;12.60;;;;;;;;;;2311349;58;21115;-84
2021/12/06 04:41:31;;;;;;;24.92;12.73;;;;;;;;;;2331153;54;21346;-85
2021/12/06 04:43:58;;;;;;;28.73;13.93;;;;;;;;;;2311225;58;21052;-84
2021/12/06 04:46:25;;;;;;;23.40;13.23;;;;;;;;;;2319363;54;21056;-84
2021/12/06 04:48:52;;;;;;;23.48;13.05;;;;;;;;;;2326332;54;21044;-84
2021/12/06 04:51:19;;;;;;;25.85;13.98;;;;;;;;;;2311486;55;21051;-85
2021/12/06 04:53:47;;;;;;;28.25;14.23;;;;;;;;;;2311579;58;21109;-85
2021/12/06 04:56:17;;;;;;;26.95;13.15;;;;;;;;;;2311710;58;21228;-85
2021/12/06 04:58:47;;;;;;;27.48;13.20;;;;;;;;;;2330454;54;21115;-83
2021/12/06 05:01:17;;;;;;;26.73;12.88;;;;;;;;;;2311495;55;21052;-85
2021/12/06 05:03:44;;;;;;;26.77;12.95;;;;;;;;;;2311444;58;21044;-83
2021/12/06 05:06:12;;;;;;;26.25;12.60;;;;;;;;;;2315201;54;21123;-85
2021/12/06 05:08:42;;;;;;;23.65;11.75;;;;;;;;;;2312060;58;21075;-85
2021/12/06 05:11:10;;;;;;;28.17;12.88;;;;;;;;;;2312789;57;21055;-85
2021/12/06 05:13:38;;;;;;;25.85;12.55;;;;;;;;;;2312634;56;21051;-85
2021/12/06 05:16:06;;;;;;;20.65;11.43;;;;;;;;;;2313381;58;21075;-85
2021/12/06 05:18:32;;;;;;;25.62;13.45;;;;;;;;;;2313097;58;21052;-86
2021/12/06 05:20:59;;;;;;;23.48;11.95;;;;;;;;;;2313249;56;21060;-85
2021/12/06 05:23:26;;;;;;;23.80;11.82;;;;;;;;;;2313052;58;21068;-85
2021/12/06 05:25:54;;;;;;;23.70;12.00;;;;;;;;;;2318773;54;21091;-85
2021/12/06 05:28:25;;;;;;;27.30;13.00;;;;;;;;;;2314743;58;21060;-86
2021/12/06 05:30:55;;;;;;;25.75;12.60;;;;;;;;;;2314083;54;21005;-84
2021/12/06 05:33:29;;;;;;;24.73;12.30;;;;;;;;;;2313059;55;21111;-84
2021/12/06 05:35:58;;;;;;;22.75;11.77;;;;;;;;;;2314336;56;21088;-85
2021/12/06 05:38:26;;;;;;;18.80;10.68;;;;;;;;;;2316114;54;21068;-85
2021/12/06 05:40:53;;;;;;;24.27;12.15;;;;;;;;;;2313491;58;21036;-85
2021/12/06 05:43:20;;;;;;;26.55;12.02;;;;;;;;;;2311699;58;21052;-84
2021/12/06 05:45:49;;;;;;;25.55;12.23;;;;;;;;;;2312148;58;21108;-85
2021/12/06 05:48:16;;;;;;;24.55;12.48;;;;;;;;;;2312040;58;21676;-84
2021/12/06 05:50:43;;;;;;;23.20;12.23;;;;;;;;;;2311912;58;21052;-85
2021/12/06 05:53:10;;;;;;;25.12;12.45;;;;;;;;;;2340046;54;21032;-85
2021/12/06 05:55:37;;;;;;;26.52;12.48;;;;;;;;;;2316970;54;21060;-85
2021/12/06 05:58:05;;;;;;;26.65;13.30;;;;;;;;;;2312026;58;21048;-83
2021/12/06 06:00:33;;;;;;;23.45;11.90;;;;;;;;;;2323446;54;21048;-85
2021/12/06 06:03:00;;;;;;;24.65;13.18;;;;;;;;;;2311655;58;21123;-85
2021/12/06 06:05:27;;;;;;;24.48;11.15;;;;;;;;;;2311908;58;21131;-85
2021/12/06 06:07:54;;;;;;;22.45;10.75;;;;;;;;;;2311862;58;21064;-85
2021/12/06 06:10:21;;;;;;;20.90;11.45;;;;;;;;;;2311690;58;21071;-85
2021/12/06 06:12:48;;;;;;;23.73;11.75;;;;;;;;;;2311769;58;21115;-85
2021/12/06 06:15:15;;;;;;;18.02;10.65;;;;;;;;;;2312128;58;21182;-85
2021/12/06 06:17:43;;;;;;;22.35;11.43;;;;;;;;;;2311949;58;21107;-84
2021/12/06 06:20:12;;;;;;;22.05;10.40;;;;;;;;;;2311163;58;21064;-85
2021/12/06 06:22:39;;;;;;;17.62;10.73;;;;;;;;;;2311745;58;21056;-82
2021/12/06 06:25:07;;;;;;;17.17;9.63;;;;;;;;;;2311452;58;21147;-84
2021/12/06 06:27:34;;;;;;;17.12;9.77;;;;;;;;;;2311602;58;21111;-84
2021/12/06 06:30:01;;;;;;;16.98;10.40;;;;;;;;;;2317328;54;21064;-85
2021/12/06 06:32:28;;;;;;;21.95;11.38;;;;;;;;;;2317480;54;21576;-85
2021/12/06 06:34:55;;;;;;;16.37;10.10;;;;;;;;;;2311729;56;21044;-85
2021/12/06 06:37:22;;;;;;;19.70;9.77;;;;;;;;;;2312463;56;21531;-85
2021/12/06 06:39:49;;;;;;;22.33;10.10;;;;;;;;;;2311991;58;21599;-86
2021/12/06 06:42:16;;;;;;;17.08;10.02;;;;;;;;;;2321437;54;21056;-86
2021/12/06 06:44:43;;;;;;;18.87;10.43;;;;;;;;;;2311880;58;21052;-87
2021/12/06 06:47:10;;;;;;;21.35;12.52;;;;;;;;;;2313693;58;21123;-86
2021/12/06 06:49:37;;;;;;;14.38;9.32;;;;;;;;;;2311832;58;21059;-85
2021/12/06 06:52:05;;;;;;;16.87;9.55;;;;;;;;;;2310695;58;21073;-85
2021/12/06 06:54:31;;;;;;;18.25;10.02;;;;;;;;;;2310982;56;21108;-85
2021/12/06 06:56:59;;;;;;;16.52;9.43;;;;;;;;;;2341576;54;21064;-86
2021/12/06 06:59:26;;;;;;;23.17;10.18;;;;;;;;;;2317642;54;21048;-83
2021/12/06 07:01:53;;;;;;;16.87;9.57;;;;;;;;;;2313921;54;21106;-88
2021/12/06 07:04:20;;;;;;;17.77;10.48;;;;;;;;;;2332257;54;21067;-87
2021/12/06 07:06:49;;;;;;;23.48;11.30;;;;;;;;;;2314626;58;21059;-87
2021/12/06 07:09:16;;;;;;;123.43;26.45;;;;;;;;;;2314190;58;21100;-87
2021/12/06 07:11:45;;;;;;;102.12;21.77;;;;;;;;;;2314384;58;21056;-86
2021/12/06 07:14:12;;;;;;;22.13;10.52;;;;;;;;;;2314195;58;21147;-87
2021/12/06 07:16:39;;;;;;;18.80;10.38;;;;;;;;;;2314216;58;21127;-87
2021/12/06 07:19:07;;;;;;;19.27;10.57;;;;;;;;;;2314202;58;21060;-86
2021/12/06 07:21:34;;;;;;;16.20;9.93;;;;;;;;;;2314349;58;21064;-87
2021/12/06 07:24:01;;;;;;;19.33;10.32;;;;;;;;;;2315031;57;21204;-87
2021/12/06 07:26:28;;;;;;;19.95;9.75;;;;;;;;;;2314887;58;21387;-87
2021/12/06 07:28:55;;;;;;;18.80;9.50;;;;;;;;;;2314461;58;21063;-87
2021/12/06 07:31:23;;;;;;;16.37;9.32;;;;;;;;;;2315411;58;21119;-88
2021/12/06 07:33:50;;;;;;;15.75;8.82;;;;;;;;;;2315292;58;21104;-86
2021/12/06 07:36:17;;;;;;;17.92;10.35;;;;;;;;;;2320753;54;21048;-89
2021/12/06 07:38:44;;;;;;;14.77;9.07;;;;;;;;;;2315060;56;21068;-84
2021/12/06 07:41:13;;;;;;;18.95;9.88;;;;;;;;;;2315692;55;21107;-88
2021/12/06 07:43:40;;;;;;;17.12;9.70;;;;;;;;;;2314495;58;21127;-87
2021/12/06 07:46:08;;;;;;;17.92;9.65;;;;;;;;;;2315611;58;21052;-86
2021/12/06 07:48:35;;;;;;;17.30;9.27;;;;;;;;;;2318909;54;21663;-88
2021/12/06 07:51:05;;;;;;;16.10;9.43;;;;;;;;;;2337850;54;21131;-87
2021/12/06 07:53:34;;;;;;;16.80;9.60;;;;;;;;;;2315353;56;21108;-87
2021/12/06 07:56:01;;;;;;;15.32;9.30;;;;;;;;;;2334974;54;21116;-86
2021/12/06 07:58:28;;;;;;;16.92;9.13;;;;;;;;;;2313427;58;21068;-86
2021/12/06 08:00:56;;;;;;;18.87;8.27;;;;;;;;;;2312934;56;21119;-86
2021/12/06 08:03:23;;;;;;;21.12;9.25;;;;;;;;;;2312181;58;21111;-85
2021/12/06 08:05:52;;;;;;;15.48;9.98;;;;;;;;;;2311676;56;21048;-86
2021/12/06 08:08:22;;;;;;;15.52;9.70;;;;;;;;;;2312266;58;21120;-85
2021/12/06 08:10:51;;;;;;;16.25;9.25;;;;;;;;;;2311939;56;21064;-84
2021/12/06 08:13:19;;;;;;;23.38;10.52;;;;;;;;;;2361340;54;21108;-87
2021/12/06 08:15:46;;;;;;;16.87;8.93;;;;;;;;;;2312284;56;21051;-86
2021/12/06 08:18:13;;;;;;;16.05;9.00;;;;;;;;;;2317302;54;21164;-84
2021/12/06 08:20:41;;;;;;;15.23;8.13;;;;;;;;;;2316275;54;21049;-84
2021/12/06 08:23:09;;;;;;;16.95;8.23;;;;;;;;;;2312059;58;21064;-86
2021/12/06 08:25:36;;;;;;;15.88;8.77;;;;;;;;;;2326200;54;21071;-83
2021/12/06 08:28:04;;;;;;;14.30;7.97;;;;;;;;;;2312879;58;21108;-85
2021/12/06 08:30:31;;;;;;;14.80;8.60;;;;;;;;;;2316249;54;21056;-85
2021/12/06 08:32:59;;;;;;;14.23;7.57;;;;;;;;;;2321466;54;21107;-86
2021/12/06 08:35:27;;;;;;;13.13;7.60;;;;;;;;;;2313496;58;21077;-87
2021/12/06 08:37:55;;;;;;;15.60;7.93;;;;;;;;;;2313306;58;21052;-86
2021/12/06 08:40:22;;;;;;;13.43;7.70;;;;;;;;;;2326172;54;21036;-85
2021/12/06 08:42:49;;;;;;;14.48;7.20;;;;;;;;;;2313166;58;21131;-86
2021/12/06 08:45:17;;;;;;;45.03;10.18;;;;;;;;;;2313207;58;21053;-85
2021/12/06 08:47:44;;;;;;;11.63;6.70;;;;;;;;;;2313425;56;21036;-86
2021/12/06 08:50:15;;;;;;;13.57;7.95;;;;;;;;;;2312331;58;21122;-85
2021/12/06 08:52:42;;;;;;;13.88;8.57;;;;;;;;;;2312798;56;21064;-86
2021/12/06 08:55:10;;;;;;;13.43;7.37;;;;;;;;;;2312767;56;21079;-86
2021/12/06 08:57:37;;;;;;;10.82;6.07;;;;;;;;;;2329210;54;21117;-86
2021/12/06 09:00:06;;;;;;;14.48;7.95;;;;;;;;;;2319458;54;21115;-86
2021/12/06 09:02:33;;;;;;;13.57;7.18;;;;;;;;;;2311922;58;21742;-86
2021/12/06 09:05:00;;;;;;;14.98;7.28;;;;;;;;;;2312374;58;21048;-85
2021/12/06 09:07:27;;;;;;;14.57;7.65;;;;;;;;;;2325586;54;21131;-86
2021/12/06 09:09:56;;;;;;;63.50;15.45;;;;;;;;;;2312238;58;21068;-85
2021/12/06 09:12:25;;;;;;;14.65;7.95;;;;;;;;;;2312210;58;21079;-86
2021/12/06 09:14:52;;;;;;;12.88;7.43;;;;;;;;;;2317148;54;21048;-84
2021/12/06 09:17:19;;;;;;;11.82;6.78;;;;;;;;;;2318951;54;21045;-86
2021/12/06 09:19:48;;;;;;;15.60;8.15;;;;;;;;;;2315193;54;21056;-86
2021/12/06 09:22:15;;;;;;;12.68;7.50;;;;;;;;;;2315677;54;21120;-85
2021/12/06 09:24:42;;;;;;;14.87;7.25;;;;;;;;;;2311978;58;21544;-84
2021/12/06 09:27:10;;;;;;;11.85;7.15;;;;;;;;;;2312395;58;21064;-86
2021/12/06 09:29:37;;;;;;;16.77;8.45;;;;;;;;;;2312109;58;21107;-85
2021/12/06 09:32:05;;;;;;;14.27;7.18;;;;;;;;;;2313176;54;21595;-86
2021/12/06 09:34:32;;;;;;;16.67;8.88;;;;;;;;;;2314948;54;21064;-85
2021/12/06 09:36:59;;;;;;;12.35;7.50;;;;;;;;;;2361344;54;21044;-85
2021/12/06 09:39:26;;;;;;;14.48;7.37;;;;;;;;;;2312083;58;21108;-85
2021/12/06 09:41:53;;;;;;;16.35;8.63;;;;;;;;;;2312312;58;21048;-84
2021/12/06 09:44:20;;;;;;;12.57;7.90;;;;;;;;;;2333750;54;21072;-84
2021/12/06 09:46:48;;;;;;;13.48;8.02;;;;;;;;;;2317677;54;21111;-84
2021/12/06 09:49:16;;;;;;;12.77;8.20;;;;;;;;;;2312116;57;21116;-85
2021/12/06 09:51:45;;;;;;;33.50;10.95;;;;;;;;;;2325335;54;21571;-85
2021/12/06 09:54:13;;;;;;;16.42;9.57;;;;;;;;;;2314218;54;21115;-84
2021/12/06 09:56:41;;;;;;;17.92;9.10;;;;;;;;;;2312187;58;21104;-84
2021/12/06 09:59:10;;;;;;;15.60;9.15;;;;;;;;;;2312203;58;21064;-86
2021/12/06 10:01:38;;;;;;;21.55;10.07;;;;;;;;;;2312406;58;21052;-84
2021/12/06 10:04:08;;;;;;;21.60;10.35;;;;;;;;;;2312200;58;21639;-85
2021/12/06 10:06:35;;;;;;;16.77;10.50;;;;;;;;;;2312554;58;21128;-85
2021/12/06 10:09:04;;;;;;;18.60;9.80;;;;;;;;;;2312286;58;21036;-85
2021/12/06 10:11:31;;;;;;;18.35;9.88;;;;;;;;;;2312232;58;21179;-84
2021/12/06 10:13:58;;;;;;;15.65;9.63;;;;;;;;;;2513402;52;21026;-77
2021/12/06 10:16:25;;;;;;;15.48;9.07;;;;;;;;;;2392039;56;21077;-76
2021/12/06 10:18:52;;;;;;;20.92;11.20;;;;;;;;;;2392088;56;21129;-76
2021/12/06 10:21:20;;;;;;;19.60;10.50;;;;;;;;;;2648944;52;21057;-76
2021/12/06 10:23:47;;;;;;;19.50;9.60;;;;;;;;;;2391494;56;21090;-76
2021/12/06 10:26:17;;;;;;;17.42;10.38;;;;;;;;;;2647318;52;21023;-76
2021/12/06 10:28:44;;;;;;;28.00;10.00;;;;;;;;;;2390300;56;21047;-75
2021/12/06 10:31:12;;;;;;;18.50;10.55;;;;;;;;;;2390283;56;21102;-75
2021/12/06 10:33:41;;;;;;;17.12;10.10;;;;;;;;;;2390123;56;21010;-76
2021/12/06 10:36:10;;;;;;;19.65;10.30;;;;;;;;;;2390702;56;21181;-77
2021/12/06 10:38:38;;;;;;;20.80;11.27;;;;;;;;;;2390200;56;21015;-76
2021/12/06 10:41:07;;;;;;;18.83;10.15;;;;;;;;;;2647069;52;21066;-76
2021/12/06 10:43:34;;;;;;;20.73;10.23;;;;;;;;;;2390260;56;21027;-76
2021/12/06 10:46:02;;;;;;;20.15;11.10;;;;;;;;;;2391128;56;21038;-76
2021/12/06 10:48:30;;;;;;;21.62;10.65;;;;;;;;;;2390859;56;21086;-76
2021/12/06 10:51:00;;;;;;;19.48;11.40;;;;;;;;;;2647805;52;21094;-76
2021/12/06 10:53:27;;;;;;;23.75;11.63;;;;;;;;;;2648218;52;21046;-76
2021/12/06 10:55:57;;;;;;;21.20;11.70;;;;;;;;;;2648196;52;21094;-76
2021/12/06 10:58:25;;;;;;;23.40;12.45;;;;;;;;;;2648403;52;21621;-76
2021/12/06 11:00:54;;;;;;;25.20;13.00;;;;;;;;;;2391091;56;21014;-76
2021/12/06 11:03:24;;;;;;;25.52;13.02;;;;;;;;;;2647212;52;21357;-76
2021/12/06 11:05:55;;;;;;;25.23;13.82;;;;;;;;;;2647474;52;21094;-77
2021/12/06 11:08:22;;;;;;;71.53;16.70;;;;;;;;;;2391402;56;21042;-76
2021/12/06 11:10:51;;;;;;;20.20;11.57;;;;;;;;;;2391124;56;21066;-75
2021/12/06 11:13:20;;;;;;;25.50;13.30;;;;;;;;;;2647873;52;21046;-75
2021/12/06 11:16:02;;;;;;;24.33;12.10;;;;;;;;;;2389954;56;21492;-77
2021/12/06 11:18:33;;;;;;;21.23;11.70;;;;;;;;;;2390303;56;21129;-76
2021/12/06 11:21:01;;;;;;;25.37;11.52;;;;;;;;;;2389944;56;21118;-76
2021/12/06 11:23:28;;;;;;;23.42;11.65;;;;;;;;;;2389972;56;21011;-75
2021/12/06 11:25:56;;;;;;;24.98;12.35;;;;;;;;;;2390322;56;21051;-77
2021/12/06 11:28:27;;;;;;;20.83;10.98;;;;;;;;;;2647241;52;21018;-77
2021/12/06 11:30:58;;;;;;;22.02;11.70;;;;;;;;;;2646549;52;21015;-77
2021/12/06 11:33:30;;;;;;;23.83;12.18;;;;;;;;;;2647605;52;21086;-77
2021/12/06 11:35:57;;;;;;;21.00;11.27;;;;;;;;;;2391091;56;21057;-78
2021/12/06 11:38:24;;;;;;;22.77;11.35;;;;;;;;;;2648595;52;21015;-77
2021/12/06 11:40:55;;;;;;;19.60;12.00;;;;;;;;;;2390609;56;21018;-75
2021/12/06 11:43:22;;;;;;;21.05;11.18;;;;;;;;;;2391160;56;21018;-76
2021/12/06 11:45:52;;;;;;;19.87;10.82;;;;;;;;;;2391428;56;21034;-78
2021/12/06 11:48:20;;;;;;;24.23;10.50;;;;;;;;;;2391472;56;21031;-76
2021/12/06 11:50:49;;;;;;;21.95;10.68;;;;;;;;;;2391361;56;21022;-76
2021/12/06 11:53:17;;;;;;;20.08;11.40;;;;;;;;;;2391167;56;21090;-77
2021/12/06 11:55:48;;;;;;;21.67;11.50;;;;;;;;;;2391542;56;21019;-75
2021/12/06 11:58:23;;;;;;;19.48;11.32;;;;;;;;;;2391274;56;21019;-77
2021/12/06 12:03:38;;;;;;;21.65;11.25;;;;;;;;;;2355726;57;22066;-75
2021/12/06 12:06:20;;;;;;;23.98;12.30;;;;;;;;;;2347611;57;21667;-75
2021/12/06 12:08:47;;;;;;;21.58;13.20;;;;;;;;;;2592923;53;21034;-75
2021/12/06 12:11:14;;;;;;;22.87;12.20;;;;;;;;;;2346207;57;21101;-75
2021/12/06 12:13:43;;;;;;;25.17;12.93;;;;;;;;;;2346213;57;21018;-75
2021/12/06 12:16:12;;;;;;;20.23;12.65;;;;;;;;;;2346304;57;21032;-75
2021/12/06 12:18:40;;;;;;;24.10;13.65;;;;;;;;;;2346354;57;21046;-75
2021/12/06 12:21:08;;;;;;;23.95;13.65;;;;;;;;;;2345804;57;21654;-75
2021/12/06 12:23:36;;;;;;;27.37;14.75;;;;;;;;;;2346282;57;21054;-75
2021/12/06 12:26:07;;;;;;;21.25;12.68;;;;;;;;;;2346220;57;21173;-75
2021/12/06 12:28:36;;;;;;;21.12;12.48;;;;;;;;;;2346362;57;21045;-75
2021/12/06 12:31:04;;;;;;;24.83;13.75;;;;;;;;;;2346084;57;21026;-75
2021/12/06 12:33:32;;;;;;;26.20;13.77;;;;;;;;;;2346249;57;21646;-75
2021/12/06 12:36:02;;;;;;;27.45;14.15;;;;;;;;;;2346169;57;21034;-75
2021/12/06 12:38:30;;;;;;;22.70;13.93;;;;;;;;;;2346084;57;21517;-75
2021/12/06 12:40:59;;;;;;;23.33;12.88;;;;;;;;;;2346048;57;21113;-75
2021/12/06 12:43:27;;;;;;;28.15;14.52;;;;;;;;;;2345959;57;21201;-75
2021/12/06 12:45:56;;;;;;;28.67;14.52;;;;;;;;;;2346352;57;21042;-75
2021/12/06 12:48:25;;;;;;;30.52;14.43;;;;;;;;;;2346249;57;21042;-75
2021/12/06 12:51:03;;;;;;;28.00;14.52;;;;;;;;;;2345683;57;21125;-75
2021/12/06 12:53:43;;;;;;;28.85;15.23;;;;;;;;;;2346257;57;21046;-75
2021/12/06 12:56:17;;;;;;;27.90;14.07;;;;;;;;;;2345827;57;21050;-75
2021/12/06 12:58:44;;;;;;;24.73;13.68;;;;;;;;;;2345751;57;21030;-75
2021/12/06 13:01:13;;;;;;;23.50;12.15;;;;;;;;;;2345972;57;21113;-75
2021/12/06 13:03:43;;;;;;;24.23;13.85;;;;;;;;;;2345617;57;21055;-75
2021/12/06 13:06:17;;;;;;;25.42;13.95;;;;;;;;;;2345575;57;21500;-75
2021/12/06 13:08:45;;;;;;;27.87;14.18;;;;;;;;;;2345661;57;21101;-76
2021/12/06 13:11:12;;;;;;;29.25;14.90;;;;;;;;;;2592769;52;21042;-76
2021/12/06 13:13:43;;;;;;;27.13;13.62;;;;;;;;;;2345664;57;21102;-76
2021/12/06 13:16:27;;;;;;;27.23;13.40;;;;;;;;;;2345226;57;22428;-76
2021/12/06 13:19:05;;;;;;;28.60;14.45;;;;;;;;;;2344812;57;21098;-76
2021/12/06 13:21:42;;;;;;;29.95;15.55;;;;;;;;;;2345245;57;21030;-76
2021/12/06 13:24:27;;;;;;;31.85;16.40;;;;;;;;;;2344940;57;21202;-76
2021/12/06 13:26:55;;;;;;;30.65;16.02;;;;;;;;;;2345402;57;21054;-76
2021/12/06 13:29:25;;;;;;;30.98;15.68;;;;;;;;;;2343955;57;21042;-76
2021/12/06 13:31:52;;;;;;;37.92;17.92;;;;;;;;;;2344664;57;21113;-76
2021/12/06 13:34:21;;;;;;;34.55;18.20;;;;;;;;;;2345062;57;21595;-76
2021/12/06 13:36:50;;;;;;;34.63;17.12;;;;;;;;;;2345191;57;21050;-76
2021/12/06 13:39:32;;;;;;;36.63;17.08;;;;;;;;;;2345045;57;21093;-76
2021/12/06 13:42:00;;;;;;;38.50;15.68;;;;;;;;;;2344902;57;21130;-75
2021/12/06 13:44:38;;;;;;;42.25;16.77;;;;;;;;;;2345037;57;21045;-75
2021/12/06 13:47:09;;;;;;;34.35;16.50;;;;;;;;;;2345101;57;21594;-75
2021/12/06 13:49:36;;;;;;;38.20;18.55;;;;;;;;;;2345018;57;21946;-75
2021/12/06 13:52:04;;;;;;;37.08;17.98;;;;;;;;;;2344876;57;21101;-74
2021/12/06 13:54:33;;;;;;;34.28;16.27;;;;;;;;;;2345243;57;21251;-75
2021/12/06 13:57:01;;;;;;;66.18;19.77;;;;;;;;;;2344872;57;21548;-75
2021/12/06 13:59:31;;;;;;;35.05;17.60;;;;;;;;;;2344760;57;21031;-75
2021/12/06 14:02:04;;;;;;;41.45;17.77;;;;;;;;;;2590940;53;21522;-75
2021/12/06 14:04:33;;;;;;;37.00;17.27;;;;;;;;;;2345247;57;21030;-76
2021/12/06 14:07:02;;;;;;;42.20;18.85;;;;;;;;;;2344950;57;21097;-75
2021/12/06 14:09:30;;;;;;;39.75;19.42;;;;;;;;;;2345201;57;21038;-75
2021/12/06 14:11:58;;;;;;;41.67;19.52;;;;;;;;;;2345097;57;21548;-74
2021/12/06 14:14:26;;;;;;;39.92;18.12;;;;;;;;;;2345310;57;21105;-75
2021/12/06 14:16:53;;;;;;;37.58;19.77;;;;;;;;;;2592096;53;21517;-75
2021/12/06 14:19:23;;;;;;;39.10;19.67;;;;;;;;;;2344401;57;21117;-74
2021/12/06 14:21:52;;;;;;;42.30;19.87;;;;;;;;;;2345314;57;21038;-74
2021/12/06 14:24:19;;;;;;;39.63;19.12;;;;;;;;;;2345077;57;21106;-75
2021/12/06 14:26:46;;;;;;;40.78;19.10;;;;;;;;;;2591852;53;21058;-75
2021/12/06 14:29:14;;;;;;;40.25;19.42;;;;;;;;;;2344726;57;21561;-75
2021/12/06 14:31:42;;;;;;;38.65;18.48;;;;;;;;;;2345433;57;21046;-74
2021/12/06 14:34:09;;;;;;;41.13;20.00;;;;;;;;;;2345053;57;21592;-75
2021/12/06 14:36:36;;;;;;;40.85;18.90;;;;;;;;;;2345026;57;21541;-75
2021/12/06 14:39:11;;;;;;;42.33;20.73;;;;;;;;;;2345114;57;21053;-75